Time;durP1;ratioP1;P1;durP2;ratioP2;P2;SDS_P1;SDS_P2;PMS_P1;PMS_P2;Temp;Humidity;BMP_temperature;BMP_pressure;BME280_temperature;BME280_humidity;BME280_pressure;Samples;Min_cycle;Max_cycle;Signal;HPM_P1;HPM_P2
2021/01/21 00:01:38;;;;;;;5.03;4.83;;;6.40;18.10;;;;;;5114256;28;20197;-72
2021/01/21 00:04:03;;;;;;;6.07;5.77;;;6.50;18.00;;;;;;5114562;28;20172;-72
2021/01/21 00:06:29;;;;;;;6.73;6.27;;;6.50;17.70;;;;;;5097527;28;20440;-72
2021/01/21 00:08:54;;;;;;;6.30;5.90;;;6.50;17.40;;;;;;5115629;28;20638;-72
2021/01/21 00:11:20;;;;;;;7.00;6.40;;;6.50;16.80;;;;;;5113829;28;20208;-72
2021/01/21 00:13:45;;;;;;;5.67;5.43;;;6.70;17.00;;;;;;5113867;28;20244;-72
2021/01/21 00:16:11;;;;;;;6.17;5.87;;;6.80;17.00;;;;;;5113341;28;20704;-72
2021/01/21 00:18:37;;;;;;;6.10;5.83;;;6.80;16.60;;;;;;5114874;28;20469;-72
2021/01/21 00:21:03;;;;;;;6.47;6.27;;;6.90;16.10;;;;;;5095008;28;20616;-72
2021/01/21 00:23:30;;;;;;;6.57;6.27;;;6.90;16.00;;;;;;5114192;28;20421;-72
2021/01/21 00:25:57;;;;;;;6.43;6.03;;;7.00;16.20;;;;;;5113535;28;20184;-72
2021/01/21 00:28:22;;;;;;;6.23;5.93;;;6.90;15.90;;;;;;5114774;28;20472;-72
2021/01/21 00:30:51;;;;;;;6.77;6.47;;;6.90;16.00;;;;;;5113094;28;20426;-72
2021/01/21 00:33:18;;;;;;;6.93;6.60;;;6.90;15.80;;;;;;5095023;28;20223;-72
2021/01/21 00:35:43;;;;;;;6.30;6.03;;;6.90;15.80;;;;;;5113100;28;20493;-72
2021/01/21 00:38:09;;;;;;;6.60;6.30;;;7.00;15.30;;;;;;5095013;28;20486;-72
2021/01/21 00:40:35;;;;;;;6.70;6.40;;;7.10;15.10;;;;;;5115075;28;20219;-72
2021/01/21 00:43:00;;;;;;;7.17;6.87;;;7.20;14.70;;;;;;5114421;28;20435;-73
2021/01/21 00:45:26;;;;;;;6.97;6.57;;;7.20;14.50;;;;;;5115293;28;20630;-73
2021/01/21 00:47:51;;;;;;;7.87;7.53;;;7.30;14.00;;;;;;5100172;28;20173;-73
2021/01/21 00:50:17;;;;;;;7.60;7.27;;;7.30;14.10;;;;;;5119844;28;20246;-73
2021/01/21 00:52:43;;;;;;;7.20;6.90;;;7.50;13.50;;;;;;5099229;28;20192;-73
2021/01/21 00:55:09;;;;;;;7.27;6.97;;;7.60;13.30;;;;;;5098658;28;20247;-73
2021/01/21 00:57:34;;;;;;;7.37;7.07;;;7.80;13.00;;;;;;5117508;28;20561;-72
2021/01/21 01:00:00;;;;;;;7.60;7.30;;;7.70;13.10;;;;;;5118410;28;20436;-71
2021/01/21 01:02:25;;;;;;;7.30;7.00;;;7.70;13.30;;;;;;5116881;28;20196;-73
2021/01/21 01:04:51;;;;;;;7.60;7.10;;;7.70;13.90;;;;;;5099502;28;20530;-73
2021/01/21 01:07:16;;;;;;;8.20;7.60;;;7.60;13.30;;;;;;5120855;28;20177;-73
2021/01/21 01:09:42;;;;;;;8.40;8.10;;;7.60;13.30;;;;;;5120722;28;20211;-73
2021/01/21 01:12:08;;;;;;;8.20;7.60;;;7.60;13.80;;;;;;5118949;28;20673;-73
2021/01/21 01:14:33;;;;;;;8.00;7.60;;;7.50;14.30;;;;;;5121504;28;20503;-73
2021/01/21 01:16:59;;;;;;;7.90;7.50;;;7.30;14.30;;;;;;5098894;28;20220;-73
2021/01/21 01:19:24;;;;;;;8.10;7.70;;;7.30;14.50;;;;;;5117260;28;20539;-73
2021/01/21 01:21:50;;;;;;;8.77;8.27;;;7.20;14.60;;;;;;5117426;28;20193;-73
2021/01/21 01:24:15;;;;;;;8.83;8.13;;;7.10;14.90;;;;;;5117102;28;20658;-73
2021/01/21 01:26:41;;;;;;;8.87;8.37;;;7.10;15.20;;;;;;5117511;28;20498;-73
2021/01/21 01:29:07;;;;;;;7.83;7.47;;;7.00;15.40;;;;;;5117162;28;20264;-72
2021/01/21 01:31:33;;;;;;;7.90;7.50;;;6.90;15.60;;;;;;5117534;28;20212;-73
2021/01/21 01:33:58;;;;;;;8.30;7.90;;;6.90;16.00;;;;;;5099363;28;20436;-73
2021/01/21 01:36:24;;;;;;;7.70;7.30;;;6.90;16.30;;;;;;5098625;28;20200;-73
2021/01/21 01:38:49;;;;;;;7.10;6.70;;;6.90;16.40;;;;;;5117161;28;20176;-73
2021/01/21 01:41:15;;;;;;;6.80;6.50;;;6.80;16.30;;;;;;5117608;28;20253;-73
2021/01/21 01:43:41;;;;;;;6.67;6.37;;;6.90;15.90;;;;;;5098366;28;20225;-73
2021/01/21 01:46:07;;;;;;;6.53;6.23;;;6.90;15.80;;;;;;5099186;28;20422;-73
2021/01/21 01:48:33;;;;;;;6.50;6.20;;;6.90;15.60;;;;;;5116922;28;20645;-73
2021/01/21 01:51:00;;;;;;;7.10;6.80;;;6.90;15.40;;;;;;5116351;28;20418;-73
2021/01/21 01:53:29;;;;;;;7.17;6.87;;;7.00;15.40;;;;;;5097557;28;20446;-73
2021/01/21 01:55:55;;;;;;;7.63;7.33;;;7.10;15.20;;;;;;5116434;28;20450;-73
2021/01/21 01:58:22;;;;;;;7.80;7.30;;;7.10;15.00;;;;;;5116165;28;20407;-73
2021/01/21 02:00:52;;;;;;;7.57;7.17;;;7.20;15.00;;;;;;5116571;28;20402;-72
2021/01/21 02:03:18;;;;;;;7.23;6.93;;;7.30;14.90;;;;;;5116040;28;20402;-72
2021/01/21 02:05:44;;;;;;;7.50;7.20;;;7.40;14.20;;;;;;5115670;28;20408;-73
2021/01/21 02:08:10;;;;;;;7.10;6.80;;;7.50;13.80;;;;;;5116049;28;20429;-72
2021/01/21 02:10:35;;;;;;;7.50;7.20;;;7.70;13.30;;;;;;5115368;28;20183;-73
2021/01/21 02:13:19;;;;;;;8.00;7.60;;;7.80;13.40;;;;;;5115717;28;20203;-72
2021/01/21 02:15:56;;;;;;;7.90;7.60;;;8.00;13.20;;;;;;5097274;28;20173;-72
2021/01/21 02:19:00;;;;;;;8.00;7.70;;;8.10;13.00;;;;;;5116072;28;20410;-73
2021/01/21 02:21:28;;;;;;;7.70;7.30;;;8.10;12.80;;;;;;5035674;28;20783;-73
2021/01/21 02:24:18;;;;;;;7.87;7.47;;;8.20;12.60;;;;;;5086584;28;20916;-73
2021/01/21 02:27:00;;;;;;;7.87;7.57;;;8.20;12.50;;;;;;5115951;28;20426;-73
2021/01/21 02:29:30;;;;;;;7.80;7.50;;;8.20;12.60;;;;;;5115166;28;20780;-73
2021/01/21 02:32:25;;;;;;;7.50;7.20;;;8.20;12.70;;;;;;5097691;28;20467;-73
2021/01/21 02:35:08;;;;;;;9.00;8.60;;;8.20;12.50;;;;;;5115084;28;20424;-73
2021/01/21 02:37:43;;;;;;;8.27;7.87;;;8.20;13.00;;;;;;5114931;28;20821;-71
2021/01/21 02:40:11;;;;;;;9.10;8.80;;;8.20;12.90;;;;;;5096742;28;20451;-73
2021/01/21 02:42:45;;;;;;;9.17;8.77;;;8.20;12.40;;;;;;5096818;28;20808;-71
2021/01/21 02:45:12;;;;;;;9.57;8.87;;;8.20;12.60;;;;;;5114684;28;20422;-72
2021/01/21 02:47:38;;;;;;;9.30;8.60;;;8.10;13.00;;;;;;5114573;28;20427;-72
2021/01/21 02:50:04;;;;;;;9.03;8.67;;;8.10;12.90;;;;;;5115413;28;20917;-72
2021/01/21 02:52:45;;;;;;;10.50;9.90;;;8.10;13.40;;;;;;5117653;28;20442;-72
2021/01/21 02:55:25;;;;;;;8.43;8.13;;;8.00;13.50;;;;;;5117507;28;20449;-71
2021/01/21 02:58:05;;;;;;;8.07;7.63;;;8.00;13.50;;;;;;5118058;28;20477;-72
2021/01/21 03:00:32;;;;;;;7.97;7.67;;;8.10;13.60;;;;;;5117988;28;20403;-71
2021/01/21 03:03:00;;;;;;;8.80;8.40;;;8.10;13.00;;;;;;5118282;28;20426;-71
2021/01/21 03:05:28;;;;;;;8.13;7.83;;;8.20;12.80;;;;;;5099512;28;20959;-72
2021/01/21 03:07:54;;;;;;;8.50;8.10;;;8.20;12.10;;;;;;5115768;28;20417;-72
2021/01/21 03:10:21;;;;;;;8.70;8.40;;;8.30;12.20;;;;;;5114825;28;20487;-72
2021/01/21 03:12:57;;;;;;;8.10;7.80;;;8.40;11.70;;;;;;5115835;28;20438;-72
2021/01/21 03:15:23;;;;;;;8.70;8.37;;;8.70;11.40;;;;;;5097304;28;20415;-72
2021/01/21 03:17:49;;;;;;;9.17;8.87;;;8.90;11.10;;;;;;5115895;28;20482;-72
2021/01/21 03:20:15;;;;;;;9.20;8.80;;;8.90;10.80;;;;;;5114782;28;20901;-71
2021/01/21 03:22:41;;;;;;;8.77;8.40;;;9.00;10.30;;;;;;5115730;28;20838;-71
2021/01/21 03:25:07;;;;;;;8.43;8.13;;;9.00;10.20;;;;;;5114973;28;20412;-71
2021/01/21 03:27:33;;;;;;;9.13;8.83;;;9.00;10.30;;;;;;5115153;28;20416;-71
2021/01/21 03:29:58;;;;;;;9.43;8.93;;;9.10;10.00;;;;;;5097199;28;21017;-71
2021/01/21 03:32:24;;;;;;;9.10;8.70;;;9.00;9.80;;;;;;5127634;22;20274;-74
2021/01/21 03:34:50;;;;;;;8.83;8.53;;;9.00;10.20;;;;;;5115855;28;20171;-74
2021/01/21 03:37:16;;;;;;;9.70;9.20;;;9.00;10.30;;;;;;5094067;28;20698;-74
2021/01/21 03:39:41;;;;;;;9.03;8.73;;;9.10;10.30;;;;;;5096589;28;20420;-74
2021/01/21 03:42:07;;;;;;;8.90;8.60;;;9.10;10.90;;;;;;5112312;28;20197;-74
2021/01/21 03:44:32;;;;;;;9.33;8.83;;;9.10;9.80;;;;;;5115852;28;20181;-74
2021/01/21 03:46:58;;;;;;;9.30;8.80;;;9.10;9.80;;;;;;5112950;28;20535;-74
2021/01/21 03:49:23;;;;;;;9.13;8.83;;;9.30;10.00;;;;;;5097553;28;20209;-74
2021/01/21 03:51:49;;;;;;;8.87;8.57;;;9.30;10.00;;;;;;5112753;28;20203;-74
2021/01/21 03:54:15;;;;;;;9.07;8.77;;;9.40;10.00;;;;;;5097077;28;20214;-74
2021/01/21 03:56:40;;;;;;;8.43;8.13;;;9.30;10.00;;;;;;5111859;28;20241;-74
2021/01/21 03:59:06;;;;;;;8.93;8.63;;;9.30;10.00;;;;;;5113689;28;20171;-74
2021/01/21 04:01:31;;;;;;;10.10;9.60;;;9.30;10.00;;;;;;5095525;28;20182;-74
2021/01/21 04:03:57;;;;;;;8.87;8.57;;;9.30;10.00;;;;;;5111909;28;20201;-75
2021/01/21 04:06:22;;;;;;;9.53;9.13;;;9.30;10.00;;;;;;5096275;28;20182;-74
2021/01/21 04:08:48;;;;;;;8.97;8.67;;;9.40;10.10;;;;;;5111502;28;20556;-74
2021/01/21 04:11:13;;;;;;;9.67;9.37;;;9.40;10.10;;;;;;5114060;28;20198;-74
2021/01/21 04:13:39;;;;;;;10.47;9.13;;;9.40;10.00;;;;;;5111611;28;20655;-74
2021/01/21 04:16:05;;;;;;;9.17;8.87;;;9.30;10.00;;;;;;5111564;28;20702;-74
2021/01/21 04:18:30;;;;;;;9.43;9.03;;;9.30;10.00;;;;;;5111653;28;20170;-74
2021/01/21 04:20:56;;;;;;;9.13;8.83;;;9.30;10.00;;;;;;5113798;28;20427;-74
2021/01/21 04:23:22;;;;;;;8.80;8.50;;;9.40;10.10;;;;;;5111478;28;20191;-74
2021/01/21 04:25:47;;;;;;;8.90;8.60;;;9.40;10.00;;;;;;5114562;28;20226;-74
2021/01/21 04:28:13;;;;;;;9.40;9.07;;;9.40;10.00;;;;;;5111483;28;20207;-75
2021/01/21 04:30:38;;;;;;;9.30;8.90;;;9.40;10.10;;;;;;5113627;28;20228;-74
2021/01/21 04:33:04;;;;;;;9.33;8.93;;;9.40;10.40;;;;;;5111327;28;20219;-74
2021/01/21 04:35:30;;;;;;;8.70;8.40;;;9.40;10.00;;;;;;5113782;28;20202;-74
2021/01/21 04:37:58;;;;;;;9.13;8.83;;;9.50;10.20;;;;;;5111542;28;20874;-74
2021/01/21 04:40:25;;;;;;;9.30;8.90;;;9.50;10.10;;;;;;5113801;28;20534;-74
2021/01/21 04:42:50;;;;;;;8.83;8.53;;;9.50;10.10;;;;;;5111348;28;20477;-74
2021/01/21 04:45:16;;;;;;;9.47;9.17;;;9.40;10.10;;;;;;5096364;28;20412;-74
2021/01/21 04:47:41;;;;;;;8.97;8.67;;;9.50;10.10;;;;;;5112978;28;20187;-74
2021/01/21 04:50:07;;;;;;;9.73;9.33;;;9.50;10.10;;;;;;5111923;28;20178;-74
2021/01/21 04:52:39;;;;;;;9.43;9.13;;;9.50;10.10;;;;;;5113463;28;20205;-74
2021/01/21 04:55:11;;;;;;;9.03;8.73;;;9.50;10.10;;;;;;5111311;28;20404;-74
2021/01/21 04:57:47;;;;;;;9.70;9.03;;;9.50;10.10;;;;;;5113261;28;20463;-74
2021/01/21 05:00:13;;;;;;;9.57;9.00;;;9.50;10.10;;;;;;5113479;28;20412;-74
2021/01/21 05:02:40;;;;;;;8.87;8.57;;;9.50;10.10;;;;;;5092791;28;20480;-74
2021/01/21 05:05:08;;;;;;;9.57;9.07;;;9.50;10.10;;;;;;5113388;28;20409;-74
2021/01/21 05:07:34;;;;;;;10.17;9.77;;;9.50;10.10;;;;;;5110956;28;20412;-74
2021/01/21 05:10:00;;;;;;;9.40;9.10;;;9.50;10.50;;;;;;5113423;28;20814;-74
2021/01/21 05:12:26;;;;;;;9.60;9.30;;;9.50;10.50;;;;;;5111089;28;20490;-74
2021/01/21 05:14:51;;;;;;;9.30;9.00;;;9.40;10.70;;;;;;5113886;28;20408;-74
2021/01/21 05:17:18;;;;;;;10.07;9.67;;;9.40;10.70;;;;;;5112343;28;20210;-74
2021/01/21 05:19:46;;;;;;;9.97;9.57;;;9.40;11.00;;;;;;5111780;28;20166;-74
2021/01/21 05:22:12;;;;;;;9.10;8.70;;;9.40;10.90;;;;;;5113259;28;20432;-74
2021/01/21 05:24:37;;;;;;;9.90;9.50;;;9.30;11.20;;;;;;5111044;28;20412;-74
2021/01/21 05:27:03;;;;;;;11.00;10.50;;;9.30;11.30;;;;;;5113672;28;20187;-74
2021/01/21 05:29:30;;;;;;;10.40;10.00;;;9.20;11.00;;;;;;5092510;28;20273;-74
2021/01/21 05:31:55;;;;;;;10.37;9.87;;;9.20;11.20;;;;;;5114154;28;20427;-74
2021/01/21 05:34:22;;;;;;;9.97;9.57;;;9.20;11.30;;;;;;5114967;28;20429;-74
2021/01/21 05:36:48;;;;;;;9.33;9.03;;;9.20;11.50;;;;;;5117679;28;20246;-74
2021/01/21 05:39:16;;;;;;;9.83;9.53;;;9.20;11.80;;;;;;5096379;28;20903;-74
2021/01/21 05:41:41;;;;;;;9.93;9.43;;;9.20;11.40;;;;;;5117836;28;20179;-74
2021/01/21 05:44:07;;;;;;;9.67;9.27;;;9.10;11.40;;;;;;5114541;28;20408;-74
2021/01/21 05:46:35;;;;;;;9.67;9.27;;;9.10;11.40;;;;;;5117393;28;20573;-74
2021/01/21 05:49:01;;;;;;;8.90;8.60;;;9.10;11.40;;;;;;5114595;28;20407;-74
2021/01/21 05:51:29;;;;;;;9.20;8.90;;;9.10;11.50;;;;;;5116642;28;20499;-74
2021/01/21 05:53:55;;;;;;;9.30;8.90;;;9.10;11.70;;;;;;5115073;28;20411;-74
2021/01/21 05:56:23;;;;;;;9.27;8.97;;;9.10;11.70;;;;;;5099380;28;20474;-74
2021/01/21 05:58:50;;;;;;;9.20;8.90;;;9.10;11.40;;;;;;5113899;28;20491;-74
2021/01/21 06:01:16;;;;;;;9.50;9.20;;;9.10;11.30;;;;;;5114007;28;20427;-74
2021/01/21 06:03:43;;;;;;;9.97;9.37;;;9.10;11.00;;;;;;5116312;28;20429;-74
2021/01/21 06:06:10;;;;;;;9.40;8.90;;;9.20;11.00;;;;;;5115653;28;20437;-74
2021/01/21 06:08:41;;;;;;;9.60;9.30;;;9.30;10.20;;;;;;5114602;28;20906;-74
2021/01/21 06:11:11;;;;;;;10.10;9.80;;;9.30;10.60;;;;;;5116200;28;20513;-74
2021/01/21 06:13:38;;;;;;;10.27;9.87;;;9.30;10.40;;;;;;5113749;28;20437;-74
2021/01/21 06:16:06;;;;;;;10.23;9.50;;;9.40;10.00;;;;;;5116233;28;20878;-74
2021/01/21 06:18:31;;;;;;;10.03;9.63;;;9.60;9.20;;;;;;5113594;28;20406;-74
2021/01/21 06:20:57;;;;;;;10.57;10.17;;;9.70;9.10;;;;;;5097603;28;20421;-74
2021/01/21 06:23:25;;;;;;;10.33;9.93;;;9.80;8.70;;;;;;5113477;28;20223;-74
2021/01/21 06:25:54;;;;;;;10.17;9.77;;;9.90;8.50;;;;;;5115629;28;20205;-74
2021/01/21 06:28:21;;;;;;;10.03;9.73;;;9.90;8.20;;;;;;5115067;28;20427;-74
2021/01/21 06:30:57;;;;;;;10.27;9.87;;;10.00;7.90;;;;;;5114646;28;20405;-74
2021/01/21 06:33:26;;;;;;;10.73;10.23;;;10.00;7.60;;;;;;5115914;28;20535;-74
2021/01/21 06:35:59;;;;;;;10.70;10.10;;;9.90;8.90;;;;;;5113220;28;20410;-74
2021/01/21 06:38:33;;;;;;;11.00;10.60;;;9.90;9.20;;;;;;5115918;28;20409;-74
2021/01/21 06:41:02;;;;;;;10.63;10.13;;;9.80;9.00;;;;;;5113161;28;20412;-74
2021/01/21 06:43:37;;;;;;;10.90;10.40;;;9.80;9.30;;;;;;5099261;28;20484;-74
2021/01/21 06:46:03;;;;;;;10.40;10.00;;;9.80;9.50;;;;;;5113101;28;20424;-74
2021/01/21 06:48:29;;;;;;;10.20;9.70;;;9.80;10.30;;;;;;5117459;28;20873;-74
2021/01/21 06:50:55;;;;;;;9.83;9.43;;;9.80;10.30;;;;;;5094449;28;20421;-73
2021/01/21 06:53:22;;;;;;;10.00;9.60;;;9.80;10.30;;;;;;5115498;28;20461;-74
2021/01/21 06:55:50;;;;;;;9.40;9.10;;;9.80;10.70;;;;;;5095289;28;20415;-74
2021/01/21 06:58:44;;;;;;;9.60;9.20;;;9.80;11.40;;;;;;5115088;28;20487;-74
2021/01/21 07:01:32;;;;;;;9.60;9.20;;;9.90;12.00;;;;;;5095010;28;20933;-75
2021/01/21 07:03:58;;;;;;;9.90;9.50;;;10.00;12.10;;;;;;5116103;28;20429;-74
2021/01/21 07:06:24;;;;;;;9.60;9.20;;;10.00;12.30;;;;;;5113333;28;20923;-73
2021/01/21 07:09:06;;;;;;;10.07;9.37;;;10.10;12.10;;;;;;5115919;28;20410;-73
2021/01/21 07:11:35;;;;;;;9.77;9.37;;;10.10;12.40;;;;;;5113927;28;20275;-73
2021/01/21 07:14:04;;;;;;;9.70;9.30;;;10.10;12.60;;;;;;5115114;28;20910;-73
2021/01/21 07:16:32;;;;;;;9.13;8.83;;;10.10;12.90;;;;;;5096640;28;20464;-73
2021/01/21 07:19:01;;;;;;;9.43;8.93;;;10.10;13.70;;;;;;5112995;28;20512;-73
2021/01/21 07:21:30;;;;;;;8.80;8.40;;;10.00;14.10;;;;;;5096662;28;20825;-73
2021/01/21 07:23:57;;;;;;;9.00;8.70;;;10.00;14.10;;;;;;5113251;28;20493;-73
2021/01/21 07:26:27;;;;;;;7.90;7.60;;;10.00;14.10;;;;;;5114496;28;20808;-73
2021/01/21 07:28:58;;;;;;;8.10;7.80;;;10.00;14.10;;;;;;5116057;28;20428;-73
2021/01/21 07:31:24;;;;;;;8.27;7.97;;;10.00;14.70;;;;;;5113584;28;20419;-73
2021/01/21 07:34:28;;;;;;;8.37;8.07;;;10.00;14.40;;;;;;5114464;28;20467;-73
2021/01/21 07:37:16;;;;;;;8.30;8.00;;;10.00;14.50;;;;;;5113724;28;20773;-73
2021/01/21 07:40:03;;;;;;;7.97;7.67;;;9.90;15.50;;;;;;5112606;28;20410;-73
2021/01/21 07:42:37;;;;;;;8.27;7.83;;;9.90;15.60;;;;;;5111891;28;20429;-74
2021/01/21 07:45:13;;;;;;;8.23;7.93;;;9.90;15.60;;;;;;5112273;28;20495;-73
2021/01/21 07:47:40;;;;;;;8.80;8.33;;;9.90;15.70;;;;;;5093737;28;20431;-73
2021/01/21 07:52:57;;;;;;;8.63;8.23;;;10.00;15.10;;;;;;5114146;28;20471;-73
2021/01/21 07:55:30;;;;;;;8.47;8.07;;;10.10;15.10;;;;;;5112440;28;20500;-73
2021/01/21 07:58:21;;;;;;;8.73;8.33;;;10.20;14.80;;;;;;5112191;28;20455;-73
2021/01/21 08:00:52;;;;;;;8.67;8.13;;;10.30;14.70;;;;;;5112728;28;20417;-73
2021/01/21 08:03:26;;;;;;;8.90;8.50;;;10.30;14.60;;;;;;5096681;28;20859;-73
2021/01/21 08:06:05;;;;;;;8.30;7.90;;;10.30;14.80;;;;;;5112264;28;20406;-73
2021/01/21 08:08:30;;;;;;;9.00;8.60;;;10.30;15.10;;;;;;5113951;28;20390;-73
2021/01/21 08:11:08;;;;;;;8.93;8.43;;;10.40;14.90;;;;;;5114242;28;20437;-73
2021/01/21 08:13:34;;;;;;;8.27;7.97;;;10.40;15.00;;;;;;5111744;28;20667;-73
2021/01/21 08:16:01;;;;;;;8.70;8.20;;;10.50;15.10;;;;;;5096533;28;20504;-73
2021/01/21 08:18:26;;;;;;;7.87;7.47;;;10.40;14.60;;;;;;5111912;28;20406;-73
2021/01/21 08:20:52;;;;;;;9.20;8.80;;;10.40;14.90;;;;;;5116464;28;20519;-73
2021/01/21 08:23:18;;;;;;;8.63;8.33;;;10.40;15.00;;;;;;5111575;28;20426;-73
2021/01/21 08:25:46;;;;;;;7.70;7.40;;;10.40;15.20;;;;;;5114248;28;20632;-73
2021/01/21 08:28:15;;;;;;;8.40;8.00;;;10.50;15.50;;;;;;5111351;28;20953;-73
2021/01/21 08:30:41;;;;;;;8.20;7.73;;;10.70;15.20;;;;;;5096119;28;20424;-73
2021/01/21 08:33:25;;;;;;;7.30;7.07;;;10.80;15.30;;;;;;5111710;28;20446;-73
2021/01/21 08:36:02;;;;;;;7.97;7.57;;;11.00;15.60;;;;;;5101491;28;20172;-74
2021/01/21 08:38:35;;;;;;;8.13;7.63;;;11.20;15.40;;;;;;5118793;28;20492;-73
2021/01/21 08:41:01;;;;;;;7.30;7.10;;;11.40;15.00;;;;;;5111577;28;20910;-73
2021/01/21 08:43:29;;;;;;;7.70;7.40;;;11.50;15.20;;;;;;5114487;28;20428;-74
2021/01/21 08:45:55;;;;;;;7.63;7.33;;;11.60;15.50;;;;;;5093479;28;20414;-74
2021/01/21 08:48:29;;;;;;;7.30;7.10;;;11.70;15.70;;;;;;5111537;28;20411;-74
2021/01/21 08:50:55;;;;;;;7.90;7.60;;;11.80;15.30;;;;;;5113496;28;20177;-74
2021/01/21 08:53:29;;;;;;;7.70;7.40;;;11.80;15.30;;;;;;5093320;28;20430;-74
2021/01/21 08:56:00;;;;;;;7.30;7.00;;;11.80;15.30;;;;;;5112218;28;20441;-74
2021/01/21 08:58:30;;;;;;;7.33;7.03;;;11.80;15.50;;;;;;5112997;28;20383;-73
2021/01/21 09:01:12;;;;;;;6.93;6.70;;;11.80;16.10;;;;;;5114095;28;20406;-74
2021/01/21 09:03:47;;;;;;;8.00;7.70;;;11.80;16.30;;;;;;5093083;28;20437;-73
2021/01/21 09:06:14;;;;;;;6.90;6.70;;;11.80;16.10;;;;;;5097529;28;20422;-73
2021/01/21 09:08:51;;;;;;;7.00;6.70;;;11.70;16.30;;;;;;5117668;28;20925;-74
2021/01/21 09:11:38;;;;;;;6.73;6.43;;;11.70;16.80;;;;;;5116780;28;20413;-74
2021/01/21 09:14:05;;;;;;;6.87;6.57;;;11.80;16.50;;;;;;5116213;28;20425;-74
2021/01/21 09:16:40;;;;;;;6.53;6.33;;;11.70;16.60;;;;;;5115009;28;20893;-74
2021/01/21 09:19:06;;;;;;;6.83;6.63;;;11.60;16.60;;;;;;5119975;28;20437;-73
2021/01/21 09:21:31;;;;;;;6.27;6.07;;;11.60;16.70;;;;;;5115240;28;20426;-74
2021/01/21 09:24:09;;;;;;;6.87;6.57;;;11.60;17.60;;;;;;5097123;28;20167;-74
2021/01/21 09:26:35;;;;;;;6.20;5.90;;;11.50;17.00;;;;;;5115476;28;20221;-74
2021/01/21 09:29:01;;;;;;;6.40;6.10;;;11.50;17.10;;;;;;5114800;28;20417;-74
2021/01/21 09:31:29;;;;;;;6.50;6.30;;;11.50;17.30;;;;;;5114820;28;20414;-74
2021/01/21 09:33:55;;;;;;;6.10;5.80;;;11.50;17.00;;;;;;5127352;22;20531;-70
2021/01/21 09:36:29;;;;;;;6.80;6.57;;;11.70;17.10;;;;;;5114600;28;20989;-71
2021/01/21 09:38:58;;;;;;;6.90;6.70;;;11.80;16.90;;;;;;5118077;28;20563;-72
2021/01/21 09:41:24;;;;;;;6.27;6.00;;;12.00;16.60;;;;;;5118121;28;20402;-72
2021/01/21 09:43:49;;;;;;;6.57;6.27;;;12.30;16.80;;;;;;5117629;28;20471;-71
2021/01/21 09:46:15;;;;;;;6.77;6.47;;;12.60;15.80;;;;;;5117805;28;20944;-71
2021/01/21 09:48:42;;;;;;;7.27;6.97;;;12.80;16.00;;;;;;5117102;28;20200;-71
2021/01/21 09:51:07;;;;;;;7.40;7.00;;;12.90;15.50;;;;;;5117030;28;20414;-71
2021/01/21 09:53:33;;;;;;;7.90;7.60;;;13.10;15.20;;;;;;5117107;28;20430;-72
2021/01/21 09:55:58;;;;;;;8.07;7.53;;;13.20;15.10;;;;;;5117172;28;20223;-73
2021/01/21 09:58:24;;;;;;;7.67;7.37;;;13.30;15.00;;;;;;5117257;28;20174;-72
2021/01/21 10:00:50;;;;;;;7.60;7.30;;;13.30;14.80;;;;;;5116914;28;20226;-73
2021/01/21 10:03:17;;;;;;;7.60;7.30;;;13.30;15.10;;;;;;5116916;28;20458;-72
2021/01/21 10:05:43;;;;;;;6.73;6.53;;;13.20;14.70;;;;;;5117622;28;20777;-72
2021/01/21 10:08:09;;;;;;;7.40;7.10;;;13.10;14.60;;;;;;5116954;28;20504;-73
2021/01/21 10:10:35;;;;;;;7.60;7.37;;;13.10;14.90;;;;;;5116550;28;20644;-72
2021/01/21 10:13:00;;;;;;;7.00;6.80;;;13.00;14.80;;;;;;5117619;28;20510;-73
2021/01/21 10:15:26;;;;;;;7.17;6.87;;;13.00;15.50;;;;;;5118884;28;20259;-72
2021/01/21 10:17:51;;;;;;;7.30;7.00;;;13.20;16.00;;;;;;5116610;28;20205;-73
2021/01/21 10:20:17;;;;;;;7.77;7.47;;;13.50;15.30;;;;;;5113661;28;20168;-73
2021/01/21 10:22:42;;;;;;;7.10;6.90;;;13.70;14.80;;;;;;5095274;28;20193;-72
2021/01/21 10:25:08;;;;;;;7.37;7.07;;;13.80;14.50;;;;;;5113944;28;20178;-71
2021/01/21 10:27:34;;;;;;;7.70;7.40;;;14.00;13.70;;;;;;5113644;28;20168;-70
2021/01/21 10:29:59;;;;;;;8.30;7.90;;;14.10;14.50;;;;;;5113445;28;20462;-71
2021/01/21 10:32:25;;;;;;;7.73;7.33;;;14.30;13.80;;;;;;5113563;28;20366;-72
2021/01/21 10:34:50;;;;;;;7.60;7.30;;;14.30;13.00;;;;;;5113701;28;20176;-71
2021/01/21 10:37:16;;;;;;;7.83;7.53;;;14.40;13.60;;;;;;5113504;28;20672;-71
2021/01/21 10:39:42;;;;;;;7.93;7.63;;;14.40;13.10;;;;;;5113484;28;20179;-73
2021/01/21 10:42:07;;;;;;;8.30;8.00;;;14.60;13.80;;;;;;5113815;28;20535;-72
2021/01/21 10:44:33;;;;;;;8.10;7.80;;;14.50;12.80;;;;;;5113507;28;20255;-72
2021/01/21 10:46:58;;;;;;;8.93;8.47;;;14.40;13.50;;;;;;5113638;28;20179;-70
2021/01/21 10:49:24;;;;;;;7.87;7.57;;;14.20;13.00;;;;;;5094700;28;20201;-71
2021/01/21 10:51:49;;;;;;;8.60;8.20;;;14.10;13.60;;;;;;5113429;28;20234;-70
2021/01/21 10:54:15;;;;;;;8.40;8.10;;;14.00;13.30;;;;;;5113236;28;20176;-70
2021/01/21 10:56:40;;;;;;;7.13;6.93;;;14.00;13.90;;;;;;5113114;28;20206;-72
2021/01/21 10:59:06;;;;;;;8.30;7.90;;;14.10;13.60;;;;;;5112457;28;20250;-71
2021/01/21 11:01:32;;;;;;;7.70;7.40;;;14.30;13.60;;;;;;5094682;28;20174;-72
2021/01/21 11:03:58;;;;;;;7.90;7.60;;;14.50;12.80;;;;;;5112861;28;20271;-73
2021/01/21 11:06:24;;;;;;;8.43;8.13;;;14.70;12.90;;;;;;5112915;28;20652;-72
2021/01/21 11:08:50;;;;;;;8.90;8.50;;;14.80;13.00;;;;;;5112631;28;20572;-70
2021/01/21 11:11:15;;;;;;;8.50;8.20;;;14.90;13.00;;;;;;5112908;28;20577;-70
2021/01/21 11:13:41;;;;;;;8.20;7.90;;;14.80;13.00;;;;;;5094357;28;20204;-71
2021/01/21 11:16:07;;;;;;;8.07;7.77;;;14.70;12.90;;;;;;5112672;28;20552;-70
2021/01/21 11:18:33;;;;;;;8.07;7.77;;;14.60;12.80;;;;;;5112596;28;20175;-71
2021/01/21 11:20:58;;;;;;;8.00;7.70;;;14.40;13.20;;;;;;5112355;28;20773;-70
2021/01/21 11:23:24;;;;;;;7.37;6.97;;;14.30;13.50;;;;;;5112379;28;20284;-70
2021/01/21 11:25:50;;;;;;;6.87;6.67;;;14.20;13.60;;;;;;5112461;28;20250;-70
2021/01/21 11:28:20;;;;;;;8.03;7.70;;;14.20;14.00;;;;;;5112355;28;20664;-72
2021/01/21 11:30:49;;;;;;;7.63;7.33;;;14.30;13.80;;;;;;5111328;28;20407;-72
2021/01/21 11:33:15;;;;;;;7.80;7.50;;;14.40;13.60;;;;;;5093822;28;20462;-71
2021/01/21 11:35:41;;;;;;;8.37;7.97;;;14.50;13.10;;;;;;5112683;28;20412;-70
2021/01/21 11:38:06;;;;;;;8.07;7.70;;;14.50;13.30;;;;;;5112196;28;20912;-71
2021/01/21 11:40:32;;;;;;;7.27;6.97;;;14.60;13.60;;;;;;5111929;28;20178;-71
2021/01/21 11:42:57;;;;;;;7.73;7.43;;;14.50;13.40;;;;;;5111761;28;20195;-71
2021/01/21 11:45:23;;;;;;;7.40;7.10;;;14.50;13.90;;;;;;5112125;28;20168;-70
2021/01/21 11:47:49;;;;;;;8.00;7.70;;;14.50;13.80;;;;;;5112323;28;20216;-70
2021/01/21 11:50:16;;;;;;;7.53;7.23;;;14.50;13.70;;;;;;5114358;28;20660;-71
2021/01/21 11:52:44;;;;;;;7.53;7.13;;;14.40;13.60;;;;;;5114256;28;20217;-71
2021/01/21 11:55:11;;;;;;;8.00;7.50;;;14.20;13.70;;;;;;5114801;28;20405;-70
2021/01/21 11:57:38;;;;;;;7.70;7.40;;;14.20;14.10;;;;;;5114873;28;20501;-71
2021/01/21 12:00:09;;;;;;;8.47;8.07;;;14.20;14.20;;;;;;5114766;28;20445;-71
2021/01/21 12:02:35;;;;;;;8.50;8.10;;;14.30;14.50;;;;;;5095851;28;20487;-71
2021/01/21 12:05:00;;;;;;;7.73;7.43;;;14.40;14.50;;;;;;5095990;28;20408;-70
2021/01/21 12:07:26;;;;;;;8.30;7.80;;;14.50;14.00;;;;;;5115029;28;20214;-71
2021/01/21 12:09:52;;;;;;;7.87;7.57;;;14.50;13.50;;;;;;5114913;28;20173;-70
2021/01/21 12:12:17;;;;;;;7.73;7.47;;;14.60;14.20;;;;;;5114195;28;20202;-72
2021/01/21 12:14:43;;;;;;;7.57;7.27;;;14.60;14.30;;;;;;5114030;28;20429;-71
2021/01/21 12:17:08;;;;;;;7.93;7.63;;;14.60;14.10;;;;;;5113798;28;20258;-73
2021/01/21 12:19:35;;;;;;;8.47;8.17;;;14.70;13.30;;;;;;5113383;28;20172;-72
2021/01/21 12:22:00;;;;;;;9.83;7.83;;;14.60;13.70;;;;;;5113841;28;20262;-73
2021/01/21 12:24:26;;;;;;;7.57;7.37;;;14.50;13.80;;;;;;5114066;28;20409;-71
2021/01/21 12:26:52;;;;;;;7.23;7.03;;;14.30;14.30;;;;;;5113802;28;20191;-70
2021/01/21 12:29:17;;;;;;;7.87;7.57;;;14.30;13.90;;;;;;5113849;28;20178;-71
2021/01/21 12:31:43;;;;;;;7.90;7.50;;;14.20;15.00;;;;;;5095933;28;20429;-71
2021/01/21 12:34:08;;;;;;;8.20;7.90;;;14.30;14.50;;;;;;5113681;28;20688;-71
2021/01/21 12:36:34;;;;;;;8.60;7.70;;;14.50;14.30;;;;;;5114071;28;20215;-71
2021/01/21 12:39:00;;;;;;;7.80;7.50;;;14.60;14.40;;;;;;5113824;28;20199;-72
2021/01/21 12:41:26;;;;;;;7.80;7.50;;;14.60;14.40;;;;;;5116198;28;20186;-70
2021/01/21 12:43:52;;;;;;;8.23;7.93;;;14.60;14.40;;;;;;5117745;28;20563;-71
2021/01/21 12:46:18;;;;;;;8.30;8.00;;;14.60;14.50;;;;;;5118270;28;20432;-71
2021/01/21 12:48:43;;;;;;;7.80;7.50;;;14.50;14.10;;;;;;5117636;28;20413;-71
2021/01/21 12:51:09;;;;;;;7.90;7.60;;;14.60;14.50;;;;;;5117855;28;20179;-71
2021/01/21 12:53:34;;;;;;;8.53;8.23;;;14.70;14.60;;;;;;5117660;28;20336;-71
2021/01/21 12:56:00;;;;;;;8.23;7.93;;;14.60;14.00;;;;;;5117793;28;20278;-71
2021/01/21 12:58:25;;;;;;;8.20;7.90;;;14.40;14.40;;;;;;5118253;28;20179;-71
2021/01/21 13:00:51;;;;;;;8.17;7.87;;;14.40;14.80;;;;;;5099307;28;20174;-71